Time;durP1;ratioP1;P1;durP2;ratioP2;P2;SDS_P1;SDS_P2;PMS_P1;PMS_P2;Temp;Humidity;BMP_temperature;BMP_pressure;BME280_temperature;BME280_humidity;BME280_pressure;Samples;Min_cycle;Max_cycle;Signal;HPM_P1;HPM_P2
2022/06/08 01:18:01;;;;;;;8.00;3.47;;;;;;;14.32;100.00;93988.78;5134122;22;20060;-87
2022/06/08 01:20:26;;;;;;;10.73;3.47;;;;;;;14.39;100.00;93994.44;5042413;28;20413;-86
2022/06/08 01:22:52;;;;;;;8.10;3.00;;;;;;;14.43;100.00;94000.66;5058078;28;20035;-88
2022/06/08 01:25:21;;;;;;;9.93;2.85;;;;;;;14.56;100.00;93991.91;5058938;28;20042;-87
2022/06/08 01:27:57;;;;;;;12.90;3.05;;;;;;;14.53;100.00;94000.44;5058592;28;20340;-87
2022/06/08 01:30:39;;;;;;;13.60;3.00;;;;;;;14.28;100.00;93993.91;5076659;28;20036;-87
2022/06/08 01:33:22;;;;;;;11.25;3.13;;;;;;;14.02;100.00;94002.38;5041971;28;20337;-87
2022/06/08 01:36:11;;;;;;;;;;;;;;;13.86;100.00;94004.56;5042833;28;20024;-88
2022/06/08 01:38:48;;;;;;;10.73;3.47;;;;;;;14.13;100.00;94003.72;4995125;28;19996;-87
2022/06/08 01:41:39;;;;;;;11.00;3.03;;;;;;;14.09;100.00;93994.06;5072801;28;20044;-87
2022/06/08 01:44:23;;;;;;;12.35;2.65;;;;;;;14.32;100.00;93994.06;5042532;28;20082;-86
2022/06/08 01:47:04;;;;;;;;;;;;;;;14.34;100.00;93994.53;5076671;28;20067;-87
2022/06/08 01:49:41;;;;;;;8.68;2.80;;;;;;;14.47;100.00;93992.94;5058548;28;19944;-87
2022/06/08 01:52:45;;;;;;;14.93;3.58;;;;;;;14.18;100.00;93994.13;5036906;28;20025;-87
2022/06/08 01:55:24;;;;;;;;;;;;;;;13.85;100.00;93997.75;5022853;28;20040;-86
2022/06/08 01:58:16;;;;;;;20.00;3.80;;;;;;;13.89;100.00;93998.69;5038306;28;19915;-88
2022/06/08 02:00:45;;;;;;;21.77;3.45;;;;;;;14.04;100.00;94002.88;5056315;28;20040;-86
2022/06/08 02:03:13;;;;;;;7.82;3.28;;;;;;;14.25;100.00;93997.91;5055352;28;20134;-87
2022/06/08 02:06:03;;;;;;;16.15;3.72;;;;;;;14.24;100.00;93996.34;5038408;28;20029;-86
2022/06/08 02:08:44;;;;;;;4.07;2.53;;;;;;;14.14;100.00;93994.75;5021968;28;20056;-87
2022/06/08 02:11:15;;;;;;;7.43;2.97;;;;;;;14.19;100.00;93990.44;5038392;28;20024;-86
2022/06/08 02:13:52;;;;;;;3.47;2.55;;;;;;;14.11;100.00;93986.66;5055755;28;20430;-86
2022/06/08 02:16:35;;;;;;;8.90;3.22;;;;;;;14.01;100.00;93985.03;5038281;28;20025;-86
2022/06/08 02:19:00;;;;;;;14.43;3.05;;;;;;;13.95;100.00;93976.47;5038847;28;20140;-86
2022/06/08 02:21:45;;;;;;;9.70;3.05;;;;;;;13.84;100.00;93983.03;5041786;28;20053;-87
2022/06/08 02:24:33;;;;;;;19.48;3.50;;;;;;;13.94;100.00;93980.19;5041870;28;20387;-87
2022/06/08 02:27:03;;;;;;;6.68;2.70;;;;;;;13.91;100.00;93974.72;5041974;28;20075;-87
2022/06/08 02:29:38;;;;;;;8.93;3.17;;;;;;;13.93;100.00;93978.63;5041791;28;20064;-87
2022/06/08 02:34:57;;;;;;;20.25;3.08;;;;;;;14.04;100.00;93975.72;5044521;28;20063;-86
2022/06/08 02:37:28;;;;;;;6.38;2.90;;;;;;;14.11;100.00;93973.47;5025156;28;20057;-87
2022/06/08 02:40:05;;;;;;;4.45;2.30;;;;;;;14.14;100.00;93967.59;5041819;28;20033;-86
2022/06/08 02:42:33;;;;;;;6.35;2.40;;;;;;;14.18;100.00;93975.69;5041420;28;20430;-87
2022/06/08 02:45:20;;;;;;;12.48;2.30;;;;;;;14.52;100.00;93977.00;5041531;28;20029;-87
2022/06/08 02:47:47;;;;;;;8.38;2.40;;;;;;;14.38;100.00;93979.72;5039785;28;20063;-86
2022/06/08 02:50:16;;;;;;;8.95;2.42;;;;;;;14.50;100.00;93979.94;5041131;28;20025;-87
2022/06/08 02:52:44;;;;;;;9.60;2.38;;;;;;;14.42;100.00;93980.66;5040665;28;20016;-87
2022/06/08 02:55:53;;;;;;;9.10;2.70;;;;;;;14.40;100.00;93982.81;5041305;28;20029;-86
2022/06/08 02:58:28;;;;;;;13.80;2.65;;;;;;;14.31;100.00;93982.75;5041033;28;20041;-86
2022/06/08 03:01:04;;;;;;;11.35;2.15;;;;;;;13.83;100.00;93987.50;5041046;28;20071;-87
2022/06/08 03:03:45;;;;;;;10.60;2.53;;;;;;;13.63;100.00;93986.09;5058812;28;20029;-86
2022/06/08 03:06:15;;;;;;;13.95;2.67;;;;;;;13.52;100.00;93987.38;5041427;28;20040;-86
2022/06/08 03:08:45;;;;;;;5.68;2.97;;;;;;;13.65;100.00;93991.06;5072333;28;20055;-87
2022/06/08 03:11:11;;;;;;;9.10;2.70;;;;;;;13.74;100.00;93986.66;5053301;28;20455;-87
2022/06/08 03:13:56;;;;;;;5.15;2.35;;;;;;;13.71;100.00;93992.53;5060559;28;20029;-87
2022/06/08 03:16:27;;;;;;;6.20;2.20;;;;;;;13.57;100.00;93995.16;5044055;28;20040;-87
2022/06/08 03:18:53;;;;;;;9.63;2.35;;;;;;;13.90;100.00;93995.00;5061106;28;20032;-87
2022/06/08 03:21:18;;;;;;;8.55;2.20;;;;;;;13.81;100.00;93994.16;5060623;28;20043;-87
2022/06/08 03:23:44;;;;;;;7.70;2.30;;;;;;;13.95;100.00;94002.00;5060664;28;20040;-88
2022/06/08 03:26:09;;;;;;;9.57;2.20;;;;;;;13.76;100.00;93999.50;5078642;28;20032;-87
2022/06/08 03:28:34;;;;;;;9.25;2.35;;;;;;;13.80;100.00;94011.78;5060696;28;20504;-87
2022/06/08 03:31:00;;;;;;;6.40;2.13;;;;;;;13.82;100.00;94011.50;5060907;28;20117;-87
2022/06/08 03:33:25;;;;;;;6.65;2.85;;;;;;;14.04;100.00;94012.59;5077886;28;20078;-86
2022/06/08 03:35:51;;;;;;;8.40;2.60;;;;;;;13.68;100.00;94012.31;5060588;28;20039;-86
2022/06/08 03:38:16;;;;;;;7.35;2.38;;;;;;;13.95;100.00;94013.34;5060183;28;20341;-87
2022/06/08 03:40:42;;;;;;;7.75;2.22;;;;;;;13.75;100.00;94011.91;5060368;28;20036;-87
2022/06/08 03:43:07;;;;;;;11.93;2.92;;;;;;;13.85;100.00;94016.97;5043280;28;20056;-87
2022/06/08 03:45:40;;;;;;;5.10;2.30;;;;;;;13.76;100.00;94008.19;5078172;28;20020;-86
2022/06/08 03:48:06;;;;;;;8.95;2.42;;;;;;;13.79;100.00;94012.09;5043730;28;20024;-87
2022/06/08 03:50:31;;;;;;;3.47;1.98;;;;;;;14.08;100.00;94019.63;5043760;28;20119;-87
2022/06/08 03:52:59;;;;;;;11.30;2.17;;;;;;;14.28;100.00;94013.13;5059812;28;20024;-87
2022/06/08 03:55:26;;;;;;;7.47;2.25;;;;;;;14.27;100.00;94018.69;5060217;28;20039;-86
2022/06/08 03:57:52;;;;;;;9.35;2.40;;;;;;;14.35;100.00;94017.22;5043468;28;20429;-87
2022/06/08 04:00:19;;;;;;;9.60;1.98;;;;;;;14.55;100.00;94014.06;5077633;28;20058;-87
2022/06/08 04:02:46;;;;;;;18.48;2.10;;;;;;;14.45;100.00;94018.81;5059268;28;20036;-87
2022/06/08 04:05:12;;;;;;;13.15;2.40;;;;;;;14.61;100.00;94021.84;5060039;28;20036;-88
2022/06/08 04:07:38;;;;;;;11.20;2.38;;;;;;;14.66;100.00;94013.84;5060343;28;20154;-88
2022/06/08 04:10:04;;;;;;;10.45;2.22;;;;;;;14.34;100.00;94018.25;5043484;28;20345;-88
2022/06/08 04:12:30;;;;;;;9.20;2.38;;;;;;;14.08;100.00;94026.75;5059545;28;20376;-86
2022/06/08 04:14:55;;;;;;;10.13;2.42;;;;;;;14.00;100.00;94017.72;5042890;28;20036;-86
2022/06/08 04:17:21;;;;;;;18.50;2.60;;;;;;;13.90;100.00;94026.59;5059395;28;20028;-86
2022/06/08 04:19:49;;;;;;;5.50;2.63;;;;;;;14.00;100.00;94025.63;5043072;28;20029;-88
2022/06/08 04:22:17;;;;;;;3.70;2.15;;;;;;;14.18;100.00;94031.03;5077230;28;20441;-87
2022/06/08 04:24:43;;;;;;;11.32;2.58;;;;;;;14.27;100.00;94019.47;5042906;28;20040;-88
2022/06/08 04:27:09;;;;;;;4.38;2.28;;;;;;;14.19;100.00;94020.16;5059399;28;20082;-87
2022/06/08 04:29:35;;;;;;;9.93;2.38;;;;;;;13.57;100.00;94018.84;5059485;28;20033;-87
2022/06/08 04:32:00;;;;;;;19.63;3.13;;;;;;;13.67;100.00;94017.84;5042634;28;20031;-84
2022/06/08 04:34:26;;;;;;;11.05;2.72;;;;;;;13.74;100.00;94022.72;5059445;28;20120;-84
2022/06/08 04:36:52;;;;;;;10.55;2.30;;;;;;;13.61;100.00;94021.69;5059459;28;20043;-84
2022/06/08 04:39:18;;;;;;;8.20;3.00;;;;;;;13.52;100.00;94027.63;5058435;28;20032;-84
2022/06/08 04:41:44;;;;;;;9.98;3.00;;;;;;;13.56;100.00;94027.81;5038456;28;20037;-84
2022/06/08 04:44:10;;;;;;;9.23;3.13;;;;;;;13.66;100.00;94027.63;5022890;28;20025;-83
2022/06/08 04:46:36;;;;;;;15.55;2.90;;;;;;;13.73;100.00;94018.53;5080208;28;20058;-84
2022/06/08 04:49:03;;;;;;;6.63;2.75;;;;;;;13.76;100.00;94031.09;5059415;28;20027;-84
2022/06/08 04:51:29;;;;;;;5.30;2.47;;;;;;;13.68;100.00;94022.84;5058931;28;20052;-84
2022/06/08 04:53:54;;;;;;;10.27;3.15;;;;;;;13.85;100.00;94029.34;5058909;28;20033;-84
2022/06/08 04:56:20;;;;;;;7.57;3.20;;;;;;;13.82;100.00;94022.03;5058933;28;20348;-84
2022/06/08 04:58:45;;;;;;;7.40;2.80;;;;;;;14.08;100.00;94026.75;5058892;28;20498;-84
2022/06/08 05:01:11;;;;;;;5.30;2.40;;;;;;;14.44;100.00;94025.94;5059064;28;20028;-84
2022/06/08 05:03:36;;;;;;;7.72;2.60;;;;;;;14.66;100.00;94019.13;5058582;28;20062;-84
2022/06/08 05:06:02;;;;;;;10.48;2.58;;;;;;;14.44;100.00;94033.09;5076986;28;20115;-84
2022/06/08 05:08:28;;;;;;;4.20;2.53;;;;;;;14.78;100.00;94029.91;5058965;28;20070;-84
2022/06/08 05:10:54;;;;;;;12.07;3.25;;;;;;;14.68;100.00;94038.81;5042432;28;20118;-84
2022/06/08 05:13:21;;;;;;;8.85;2.70;;;;;;;14.71;100.00;94037.44;5058271;28;20062;-84
2022/06/08 05:15:48;;;;;;;6.22;2.67;;;;;;;14.80;100.00;94048.84;5058683;28;20322;-84
2022/06/08 05:18:15;;;;;;;6.70;2.85;;;;;;;14.81;100.00;94049.63;5058804;28;20042;-83
2022/06/08 05:20:42;;;;;;;5.70;2.70;;;;;;;14.84;100.00;94047.16;5058607;28;20333;-83
2022/06/08 05:23:12;;;;;;;10.60;2.65;;;;;;;15.00;100.00;94053.94;5041362;28;20468;-84
2022/06/08 05:25:39;;;;;;;8.35;2.70;;;;;;;15.25;100.00;94057.75;5076776;28;20127;-83
2022/06/08 05:28:06;;;;;;;6.88;2.47;;;;;;;15.29;100.00;94055.31;5041829;28;20111;-83
2022/06/08 05:30:34;;;;;;;9.13;2.70;;;;;;;15.46;100.00;94057.22;5058820;28;20115;-84
2022/06/08 05:33:00;;;;;;;12.25;2.85;;;;;;;15.60;100.00;94060.53;5076221;28;20376;-83
2022/06/08 05:35:26;;;;;;;6.22;2.60;;;;;;;15.80;100.00;94061.06;5058445;28;20027;-84
2022/06/08 05:37:52;;;;;;;9.43;2.55;;;;;;;15.82;100.00;94059.63;5058749;28;20024;-83
2022/06/08 05:40:18;;;;;;;6.63;2.80;;;;;;;15.74;100.00;94060.41;5058761;28;20438;-84
2022/06/08 05:42:44;;;;;;;6.43;2.60;;;;;;;15.96;100.00;94056.91;5057682;28;20028;-84
2022/06/08 05:45:15;;;;;;;6.13;2.55;;;;;;;16.37;100.00;94056.78;5058478;28;20024;-84
2022/06/08 05:47:41;;;;;;;9.07;2.63;;;;;;;16.77;100.00;94063.75;5057207;28;20032;-84
2022/06/08 05:50:07;;;;;;;4.95;2.17;;;;;;;16.73;100.00;94063.59;5058617;28;20323;-85
2022/06/08 05:52:32;;;;;;;6.75;2.10;;;;;;;16.87;100.00;94065.28;5058026;28;20104;-85
2022/06/08 05:54:59;;;;;;;5.47;2.05;;;;;;;17.21;100.00;94064.47;5055071;28;20078;-84
2022/06/08 05:57:24;;;;;;;17.77;2.88;;;;;;;17.41;100.00;94059.56;5075336;28;20028;-85
2022/06/08 05:59:50;;;;;;;8.80;2.25;;;;;;;17.60;100.00;94061.06;5078837;28;20033;-84
2022/06/08 06:02:16;;;;;;;4.25;2.45;;;;;;;17.52;100.00;94058.09;5078589;28;20426;-84
2022/06/08 06:04:42;;;;;;;7.43;2.00;;;;;;;17.70;100.00;94063.31;5062307;28;20115;-85
2022/06/08 06:07:08;;;;;;;7.63;2.80;;;;;;;17.69;100.00;94066.31;5062281;28;20021;-85
2022/06/08 06:09:34;;;;;;;4.70;2.28;;;;;;;17.86;100.00;94060.91;5062104;28;20503;-84
2022/06/08 06:12:00;;;;;;;9.35;2.10;;;;;;;17.90;100.00;94059.16;5078169;28;20016;-85
2022/06/08 06:14:25;;;;;;;12.65;2.80;;;;;;;17.45;100.00;94060.50;5078748;28;20433;-85
2022/06/08 06:16:50;;;;;;;5.63;2.40;;;;;;;17.74;100.00;94058.16;5078647;28;20036;-88
2022/06/08 06:19:16;;;;;;;10.18;2.80;;;;;;;17.88;100.00;94064.00;5080163;28;20341;-85
2022/06/08 06:21:41;;;;;;;9.50;3.28;;;;;;;18.03;100.00;94068.00;5079080;28;20032;-87
2022/06/08 06:24:07;;;;;;;11.77;2.45;;;;;;;18.02;100.00;94069.09;5078960;28;20040;-86
2022/06/08 06:26:32;;;;;;;5.35;2.15;;;;;;;18.11;100.00;94063.75;5061847;28;20032;-86
2022/06/08 06:28:58;;;;;;;26.60;6.43;;;;;;;18.23;100.00;94063.03;5078258;28;20082;-85
2022/06/08 06:31:28;;;;;;;11.85;3.60;;;;;;;18.25;100.00;94060.84;5078263;28;20063;-85
2022/06/08 06:33:53;;;;;;;12.98;3.05;;;;;;;18.35;100.00;94059.66;5079498;28;20041;-85
2022/06/08 06:36:19;;;;;;;11.13;2.35;;;;;;;18.56;100.00;94062.31;5079588;28;20460;-85
2022/06/08 06:38:44;;;;;;;6.93;2.10;;;;;;;18.76;100.00;94066.03;5061651;28;20345;-85
2022/06/08 06:41:13;;;;;;;12.10;2.40;;;;;;;18.82;100.00;94063.94;5079557;28;20048;-86
2022/06/08 06:43:39;;;;;;;7.68;2.30;;;;;;;18.89;100.00;94072.19;5077793;28;20032;-85
2022/06/08 06:46:04;;;;;;;2.33;1.63;;;;;;;18.83;100.00;94062.09;5061521;28;20025;-85
2022/06/08 06:48:33;;;;;;;12.27;2.28;;;;;;;19.05;100.00;94063.63;5076645;28;20527;-86
2022/06/08 06:50:59;;;;;;;10.68;2.30;;;;;;;18.96;100.00;94066.34;5041461;28;20029;-86
2022/06/08 06:53:24;;;;;;;11.35;2.50;;;;;;;18.64;100.00;94058.03;5060635;28;20055;-87
2022/06/08 06:55:52;;;;;;;8.57;2.20;;;;;;;19.05;100.00;94064.38;5061755;28;20028;-86
2022/06/08 06:58:18;;;;;;;8.18;2.63;;;;;;;18.92;100.00;94063.56;5061424;28;20452;-86
2022/06/08 07:00:43;;;;;;;13.40;2.30;;;;;;;18.73;100.00;94060.63;5079191;28;20111;-86
2022/06/08 07:03:09;;;;;;;12.75;2.58;;;;;;;18.93;100.00;94065.09;5043900;28;20071;-86
2022/06/08 07:05:34;;;;;;;6.38;2.22;;;;;;;18.74;100.00;94060.28;5060500;28;20028;-86
2022/06/08 07:08:00;;;;;;;18.77;6.22;;;;;;;19.30;100.00;94053.03;5061087;28;20528;-86
2022/06/08 07:10:26;;;;;;;13.18;2.92;;;;;;;19.81;100.00;94051.94;5060992;28;20048;-86
2022/06/08 07:12:51;;;;;;;5.70;3.40;;;;;;;19.50;100.00;94057.47;5060615;28;20036;-86
2022/06/08 07:15:20;;;;;;;12.40;3.45;;;;;;;19.92;100.00;94059.16;5078561;28;20078;-86
2022/06/08 07:17:45;;;;;;;5.15;3.05;;;;;;;20.23;100.00;94059.66;5077183;28;20489;-86
2022/06/08 07:20:13;;;;;;;9.68;2.60;;;;;;;20.48;100.00;94060.34;5040672;28;20128;-86
2022/06/08 07:22:38;;;;;;;8.18;2.80;;;;;;;20.28;100.00;94056.75;5040435;28;20469;-86
2022/06/08 07:25:06;;;;;;;8.63;2.90;;;;;;;20.28;100.00;94048.78;5058260;28;20067;-86
2022/06/08 07:27:31;;;;;;;8.23;2.72;;;;;;;19.27;100.00;94049.16;5040508;28;20051;-85
2022/06/08 07:29:57;;;;;;;5.53;2.90;;;;;;;18.94;100.00;94048.06;5050747;28;20416;-85
2022/06/08 07:32:22;;;;;;;4.68;2.40;;;;;;;19.33;100.00;94047.81;5077204;28;20107;-84
2022/06/08 07:34:47;;;;;;;14.30;3.00;;;;;;;19.75;100.00;94048.72;5055005;28;20037;-85
2022/06/08 07:37:13;;;;;;;8.98;3.35;;;;;;;19.68;100.00;94046.63;5040189;28;20430;-86
2022/06/08 07:39:38;;;;;;;12.90;3.88;;;;;;;19.82;100.00;94046.31;5058385;28;20430;-85
2022/06/08 07:42:04;;;;;;;6.32;2.95;;;;;;;20.59;100.00;94057.22;5039720;28;20086;-86
2022/06/08 07:44:30;;;;;;;7.28;2.90;;;;;;;20.68;100.00;94044.56;5040466;28;20083;-84
2022/06/08 07:46:55;;;;;;;8.90;2.70;;;;;;;20.57;100.00;94043.50;5057878;28;20029;-85
2022/06/08 07:49:39;;;;;;;5.88;2.38;;;;;;;21.38;100.00;94039.84;5040074;28;20444;-86
2022/06/08 07:52:10;;;;;;;8.75;3.17;;;;;;;21.24;100.00;94028.84;5042007;28;20507;-85
2022/06/08 07:54:36;;;;;;;8.20;2.97;;;;;;;21.77;100.00;94028.56;5040234;28;20057;-86
2022/06/08 07:57:03;;;;;;;11.70;2.55;;;;;;;22.22;100.00;94025.72;5040012;28;20036;-86
2022/06/08 07:59:31;;;;;;;7.82;2.65;;;;;;;22.74;100.00;94027.13;5040031;28;20025;-87
2022/06/08 08:01:57;;;;;;;13.93;2.63;;;;;;;22.40;100.00;94032.19;5023421;28;20094;-86
2022/06/08 08:04:23;;;;;;;6.97;2.85;;;;;;;21.43;100.00;94025.50;5039893;28;20377;-86
2022/06/08 08:06:48;;;;;;;13.13;2.92;;;;;;;20.67;100.00;94024.38;5040085;28;20033;-86
2022/06/08 08:09:18;;;;;;;13.88;2.80;;;;;;;20.41;100.00;94022.94;5039579;28;20075;-85
2022/06/08 08:11:47;;;;;;;11.88;2.58;;;;;;;20.52;100.00;94020.53;5039988;28;20037;-85
2022/06/08 08:14:14;;;;;;;8.73;2.70;;;;;;;20.00;100.00;94016.84;5039649;28;20024;-85
2022/06/08 08:16:40;;;;;;;6.30;2.40;;;;;;;20.31;100.00;94012.75;5039049;28;20033;-85
2022/06/08 08:19:06;;;;;;;9.85;2.50;;;;;;;20.86;100.00;94015.75;5039767;28;20035;-86
2022/06/08 08:21:34;;;;;;;4.80;2.17;;;;;;;21.06;100.00;94013.22;5039370;28;20041;-85
2022/06/08 08:24:02;;;;;;;3.65;1.90;;;;;;;21.23;100.00;94003.34;5039933;28;20033;-86
2022/06/08 08:26:27;;;;;;;10.27;2.20;;;;;;;21.40;100.00;94002.22;5039773;28;20424;-85
2022/06/08 08:28:54;;;;;;;5.32;1.65;;;;;;;21.60;100.00;94008.38;5039761;28;20060;-86
2022/06/08 08:31:20;;;;;;;7.68;2.33;;;;;;;21.28;100.00;94011.84;5023121;28;20025;-87
2022/06/08 08:33:45;;;;;;;9.93;1.92;;;;;;;21.51;100.00;94007.78;5039104;28;20123;-88
2022/06/08 08:36:11;;;;;;;8.43;2.35;;;;;;;21.44;100.00;94011.06;5039803;28;20041;-86
2022/06/08 08:38:37;;;;;;;4.05;1.50;;;;;;;21.70;100.00;94004.44;5023302;28;20029;-86
2022/06/08 08:41:04;;;;;;;6.47;2.10;;;;;;;21.37;100.00;94006.34;5057202;28;20036;-87
2022/06/08 08:43:33;;;;;;;8.32;1.80;;;;;;;22.00;100.00;93998.59;5038984;28;20314;-86
2022/06/08 08:46:01;;;;;;;5.50;1.40;;;;;;;21.89;100.00;93993.03;5022863;28;20025;-86
2022/06/08 08:48:35;;;;;;;3.50;1.15;;;;;;;22.08;100.00;93997.63;5057212;28;20418;-87
2022/06/08 08:51:21;;;;;;;3.10;1.23;;;;;;;22.34;100.00;93995.47;5039381;28;20041;-86
2022/06/08 08:54:04;;;;;;;7.60;1.60;;;;;;;22.12;100.00;94003.81;5038666;28;20017;-90
2022/06/08 08:56:38;;;;;;;10.57;1.58;;;;;;;21.82;100.00;94001.66;5057053;28;20032;-88
2022/06/08 08:59:15;;;;;;;4.32;1.42;;;;;;;21.64;100.00;94003.13;5039311;28;20032;-88
2022/06/08 09:01:42;;;;;;;3.17;1.20;;;;;;;22.03;100.00;94000.56;5038445;28;20397;-88
2022/06/08 09:04:34;;;;;;;2.22;1.20;;;;;;;22.39;100.00;94005.84;5039425;28;20040;-87
2022/06/08 09:07:17;;;;;;;4.22;1.20;;;;;;;22.65;100.00;94007.13;5038894;28;20032;-87
2022/06/08 09:09:43;;;;;;;;;;;;;;;22.11;100.00;94007.59;5039409;28;20033;-88
2022/06/08 09:12:19;;;;;;;2.78;1.02;;;;;;;22.38;100.00;94005.09;5038374;28;19963;-88
2022/06/08 09:14:58;;;;;;;3.13;1.20;;;;;;;22.45;100.00;94007.88;5039126;28;20028;-87
2022/06/08 09:17:40;;;;;;;3.50;1.02;;;;;;;22.16;100.00;94004.66;5040346;28;20123;-87
2022/06/08 09:20:30;;;;;;;4.25;1.08;;;;;;;22.13;100.00;94012.56;5058828;28;20052;-87
2022/06/08 09:23:03;;;;;;;3.45;1.48;;;;;;;22.46;100.00;94006.75;5032764;28;20045;-87
2022/06/08 09:25:31;;;;;;;5.50;1.15;;;;;;;22.38;100.00;94009.66;5053624;28;20078;-88
2022/06/08 09:27:58;;;;;;;3.42;1.48;;;;;;;22.50;100.00;94004.19;5042757;28;20055;-88
2022/06/08 09:30:27;;;;;;;2.72;1.00;;;;;;;22.43;100.00;93996.78;5053920;28;20341;-90
2022/06/08 09:33:13;;;;;;;4.18;1.10;;;;;;;22.52;100.00;93996.59;5062298;28;20082;-87
2022/06/08 09:35:51;;;;;;;3.92;1.17;;;;;;;22.40;100.00;93992.16;5062564;28;20033;-87
2022/06/08 09:38:16;;;;;;;1.77;1.05;;;;;;;22.52;100.00;93993.16;5046284;28;20028;-89
2022/06/08 09:41:10;;;;;;;9.40;2.80;;;;;;;22.84;100.00;93996.41;5062763;28;20074;-90
2022/06/08 09:44:01;;;;;;;4.47;1.60;;;;;;;22.43;100.00;93999.47;5069438;28;20101;-89
2022/06/08 09:52:20;;;;;;;1.42;1.08;;;;;;;22.96;100.00;93992.81;5064914;28;20031;-88
2022/06/08 09:55:23;;;;;;;1.83;1.10;;;;;;;23.38;100.00;93998.44;5080448;28;20063;-87
2022/06/08 09:58:01;;;;;;;4.32;1.17;;;;;;;23.41;98.81;93989.75;5071662;28;20052;-87
2022/06/08 10:00:57;;;;;;;1.90;1.08;;;;;;;23.64;92.96;93996.94;5062625;28;20505;-91
2022/06/08 10:03:31;;;;;;;4.35;1.15;;;;;;;23.10;100.00;94000.28;5062319;28;20032;-89
2022/06/08 10:06:00;;;;;;;2.78;1.10;;;;;;;22.99;90.08;93996.66;5070379;28;20059;-89
2022/06/08 10:08:41;;;;;;;2.72;1.00;;;;;;;23.09;95.70;93993.41;5080389;28;20036;-89
2022/06/08 10:11:37;;;;;;;11.88;1.25;;;;;;;23.18;100.00;93995.06;5080128;28;20050;-89
2022/06/08 10:14:19;;;;;;;3.08;1.05;;;;;;;23.13;85.58;93991.56;5079820;28;20025;-87
2022/06/08 10:16:53;;;;;;;5.15;1.20;;;;;;;23.03;96.82;93992.16;5045694;28;20123;-88
2022/06/08 10:19:49;;;;;;;6.45;1.10;;;;;;;23.49;100.00;93991.38;5062316;28;20032;-87
2022/06/08 10:22:15;;;;;;;3.60;1.00;;;;;;;23.48;91.20;93983.72;5061878;28;20025;-91
2022/06/08 10:24:53;;;;;;;3.50;0.93;;;;;;;23.28;90.06;93975.78;5079563;28;20040;-89
2022/06/08 10:27:29;;;;;;;2.78;1.02;;;;;;;23.71;100.00;93983.69;5062339;28;20063;-90
2022/06/08 10:30:15;;;;;;;1.88;0.82;;;;;;;23.63;100.00;93974.78;5060969;28;20515;-87
2022/06/08 10:32:48;;;;;;;3.85;0.90;;;;;;;23.30;98.28;93970.84;5061857;28;20035;-89
2022/06/08 10:35:41;;;;;;;1.67;0.80;;;;;;;23.69;96.00;93967.97;5045391;28;20059;-88
2022/06/08 10:38:32;;;;;;;1.08;0.63;;;;;;;23.98;84.71;93959.56;5054484;28;20040;-90
2022/06/08 10:41:03;;;;;;;5.97;1.20;;;;;;;23.90;96.73;93960.59;5060355;28;20138;-89
2022/06/08 10:43:32;;;;;;;1.58;0.85;;;;;;;23.88;98.97;93957.53;5079235;28;20047;-89
2022/06/08 10:46:04;;;;;;;2.53;0.73;;;;;;;24.17;87.89;93950.63;5079355;28;20033;-87
2022/06/08 10:48:34;;;;;;;1.25;0.70;;;;;;;23.67;81.35;93954.19;5060940;28;20330;-89
2022/06/08 10:51:12;;;;;;;1.02;0.60;;;;;;;23.75;76.33;93962.34;5061524;28;20396;-87
2022/06/08 10:56:26;;;;;;;2.42;0.70;;;;;;;24.41;71.59;93967.34;5064180;28;20151;-86
2022/06/08 10:59:03;;;;;;;4.05;0.60;;;;;;;24.86;67.67;93959.44;5078886;28;20036;-86
2022/06/08 11:01:50;;;;;;;3.08;0.60;;;;;;;24.45;72.17;93946.75;5079043;28;20041;-86
2022/06/08 11:04:30;;;;;;;12.82;1.20;;;;;;;24.74;78.60;93955.06;5078589;28;20036;-86
2022/06/08 11:07:06;;;;;;;2.65;0.80;;;;;;;24.64;73.45;93950.38;5078705;28;20043;-87
2022/06/08 11:09:34;;;;;;;1.90;0.90;;;;;;;24.47;72.50;93947.16;5059004;28;20036;-87
2022/06/08 11:12:29;;;;;;;4.03;0.98;;;;;;;24.43;67.64;93952.47;5078253;28;20103;-86
2022/06/08 11:14:58;;;;;;;8.50;0.90;;;;;;;24.89;72.77;93942.59;5061560;28;20414;-87
2022/06/08 11:17:53;;;;;;;4.95;0.80;;;;;;;24.84;81.13;93951.00;5060928;28;20032;-89
2022/06/08 11:20:36;;;;;;;3.05;0.80;;;;;;;24.56;78.75;93941.50;5078639;28;20337;-87
2022/06/08 11:23:06;;;;;;;3.45;0.90;;;;;;;24.67;65.48;93942.38;5060827;28;20042;-85
2022/06/08 11:25:34;;;;;;;6.35;0.70;;;;;;;25.87;69.54;93931.81;5073750;28;20078;-86
2022/06/08 11:28:33;;;;;;;4.53;1.00;;;;;;;25.42;72.08;93933.44;5060612;28;20032;-86
2022/06/08 11:31:27;;;;;;;3.35;0.70;;;;;;;25.57;72.79;93932.78;5057123;28;20024;-87
2022/06/08 11:34:05;;;;;;;1.85;0.90;;;;;;;25.96;62.25;93916.88;5041949;28;20044;-86
2022/06/08 11:36:36;;;;;;;3.50;1.05;;;;;;;26.85;66.15;93915.97;5084201;28;20071;-86
2022/06/08 11:39:15;;;;;;;2.95;1.08;;;;;;;25.89;76.45;93919.53;5077054;28;20034;-88
2022/06/08 11:41:42;;;;;;;5.90;1.95;;;;;;;24.87;91.01;93923.47;5076746;28;20444;-85
2022/06/08 11:44:18;;;;;;;4.13;1.58;;;;;;;24.97;93.69;93916.63;5077234;28;20034;-85
2022/06/08 11:46:53;;;;;;;4.43;1.70;;;;;;;24.79;100.00;93919.94;5076909;28;20024;-85
2022/06/08 11:49:38;;;;;;;9.00;1.60;;;;;;;24.80;100.00;93916.13;5074485;28;20036;-90
2022/06/08 11:52:18;;;;;;;3.30;1.55;;;;;;;24.17;100.00;93912.41;5058721;28;20020;-90
2022/06/08 11:54:44;;;;;;;1.70;1.20;;;;;;;24.82;100.00;93915.78;5059898;28;20024;-90
2022/06/08 11:57:16;;;;;;;4.88;1.35;;;;;;;25.80;78.51;93905.69;5043486;28;20460;-89
2022/06/08 11:59:46;;;;;;;2.88;1.25;;;;;;;26.81;73.52;93900.63;5043608;28;20059;-90
2022/06/08 12:02:22;;;;;;;2.65;1.33;;;;;;;25.63;100.00;93897.19;5077429;28;20033;-89
2022/06/08 12:04:51;;;;;;;2.72;1.02;;;;;;;24.70;97.24;93898.00;5060058;28;20035;-90
2022/06/08 12:08:04;;;;;;;2.55;1.30;;;;;;;24.26;95.93;93892.25;5043455;28;20029;-91
2022/06/08 12:10:33;;;;;;;2.67;1.23;;;;;;;25.48;82.81;93882.94;5020368;28;20032;-90
2022/06/08 12:12:59;;;;;;;8.20;1.63;;;;;;;24.85;80.51;93883.63;5042800;28;20016;-90
2022/06/08 12:15:43;;;;;;;3.88;1.30;;;;;;;24.80;99.20;93885.88;5043021;28;20032;-89
2022/06/08 12:18:09;;;;;;;;;;;;;;;25.60;78.22;93875.72;5060829;28;20028;-90
2022/06/08 12:20:38;;;;;;;2.55;1.17;;;;;;;25.34;100.00;93888.19;5059510;28;19908;-89
2022/06/08 12:23:04;;;;;;;2.33;1.20;;;;;;;25.24;82.29;93881.63;5059554;28;20029;-90
2022/06/08 12:25:31;;;;;;;2.53;1.20;;;;;;;25.64;76.71;93873.81;5059481;28;20032;-90
2022/06/08 12:27:59;;;;;;;5.13;1.73;;;;;;;25.97;76.04;93877.41;5059963;28;20032;-89
2022/06/08 12:30:29;;;;;;;5.72;1.20;;;;;;;26.58;75.55;93882.19;5059849;28;20441;-90
2022/06/08 12:33:03;;;;;;;3.03;1.05;;;;;;;27.26;71.92;93874.50;5043083;28;20029;-89
2022/06/08 12:35:33;;;;;;;9.48;1.20;;;;;;;26.74;69.79;93873.72;5059732;28;20028;-90
2022/06/08 12:38:16;;;;;;;2.10;1.30;;;;;;;27.40;71.58;93874.47;5043131;28;20028;-91
2022/06/08 12:40:43;;;;;;;4.78;1.35;;;;;;;25.95;79.50;93872.41;5043206;28;20329;-92
2022/06/08 12:43:10;;;;;;;4.80;1.30;;;;;;;26.04;100.00;93866.69;5059442;28;20067;-90
2022/06/08 12:45:39;;;;;;;2.53;1.10;;;;;;;28.07;70.51;93860.44;5059560;28;20063;-90
2022/06/08 12:48:36;;;;;;;1.55;1.00;;;;;;;27.62;72.90;93861.00;5059653;28;20066;-89
2022/06/08 12:51:37;;;;;;;4.75;1.17;;;;;;;27.87;68.39;93852.06;5076878;28;20020;-90
2022/06/08 12:54:11;;;;;;;3.42;1.23;;;;;;;26.07;90.13;93865.94;5048227;28;20036;-91
2022/06/08 12:56:37;;;;;;;2.67;0.80;;;;;;;25.90;81.47;93854.00;5042517;28;20503;-91
2022/06/08 12:59:03;;;;;;;6.72;1.35;;;;;;;25.46;91.30;93844.97;5042728;28;20020;-90
2022/06/08 13:01:30;;;;;;;6.72;1.30;;;;;;;25.59;81.36;93847.34;5076626;28;20024;-91
2022/06/08 13:03:56;;;;;;;2.28;1.02;;;;;;;26.57;79.54;93843.03;5076866;28;20444;-90
2022/06/08 13:06:26;;;;;;;4.18;1.00;;;;;;;25.77;73.97;93845.50;5042252;28;20024;-92
2022/06/08 13:08:54;;;;;;;6.97;1.15;;;;;;;26.13;68.15;93842.16;5058580;28;20025;-91
2022/06/08 13:11:23;;;;;;;5.00;1.50;;;;;;;26.13;70.32;93838.72;5059061;28;20028;-87
2022/06/08 13:13:49;;;;;;;2.25;1.25;;;;;;;26.41;76.56;93835.34;5057299;28;20430;-87
2022/06/08 13:16:22;;;;;;;4.75;1.30;;;;;;;26.78;77.70;93836.91;5048973;28;20056;-86